sensor_id;sensor_type;location;lat;lon;timestamp;pressure;altitude;pressure_sealevel;temperature;humidity
61345;BME280;47216;42.656;23.232;2022-08-01T00:02:06;93871.91;;;16.18;72.93
61345;BME280;47216;42.656;23.232;2022-08-01T00:04:32;93869.44;;;16.03;72.98
61345;BME280;47216;42.656;23.232;2022-08-01T00:07:01;93866.50;;;16.09;72.65
61345;BME280;47216;42.656;23.232;2022-08-01T00:09:27;93868.41;;;16.04;73.24
61345;BME280;47216;42.656;23.232;2022-08-01T00:11:54;93862.66;;;15.96;72.89
61345;BME280;47216;42.656;23.232;2022-08-01T00:14:21;93861.63;;;15.98;73.17
61345;BME280;47216;42.656;23.232;2022-08-01T00:16:48;93864.69;;;16.05;72.84
61345;BME280;47216;42.656;23.232;2022-08-01T00:19:15;93859.56;;;15.94;72.92
61345;BME280;47216;42.656;23.232;2022-08-01T00:21:42;93864.25;;;15.98;72.54
61345;BME280;47216;42.656;23.232;2022-08-01T00:24:10;93863.69;;;16.01;72.03
61345;BME280;47216;42.656;23.232;2022-08-01T00:26:37;93870.97;;;16.09;72.09
61345;BME280;47216;42.656;23.232;2022-08-01T00:29:04;93861.47;;;16.13;71.62
61345;BME280;47216;42.656;23.232;2022-08-01T00:31:31;93859.88;;;16.12;71.69
61345;BME280;47216;42.656;23.232;2022-08-01T00:33:57;93851.72;;;16.13;71.36
61345;BME280;47216;42.656;23.232;2022-08-01T00:36:24;93858.09;;;16.07;71.86
61345;BME280;47216;42.656;23.232;2022-08-01T00:38:51;93862.00;;;16.10;72.02
61345;BME280;47216;42.656;23.232;2022-08-01T00:41:19;93859.16;;;16.06;72.13
61345;BME280;47216;42.656;23.232;2022-08-01T00:43:46;93853.72;;;15.98;71.54
61345;BME280;47216;42.656;23.232;2022-08-01T00:46:13;93856.69;;;16.15;70.97
61345;BME280;47216;42.656;23.232;2022-08-01T00:48:40;93854.50;;;16.22;71.09
61345;BME280;47216;42.656;23.232;2022-08-01T00:51:08;93849.72;;;16.24;71.04
61345;BME280;47216;42.656;23.232;2022-08-01T00:53:35;93853.16;;;16.25;70.60
61345;BME280;47216;42.656;23.232;2022-08-01T00:56:02;93853.72;;;16.22;70.89
61345;BME280;47216;42.656;23.232;2022-08-01T00:58:31;93854.38;;;16.32;70.49
61345;BME280;47216;42.656;23.232;2022-08-01T01:00:58;93847.91;;;16.25;70.39
61345;BME280;47216;42.656;23.232;2022-08-01T01:03:25;93846.31;;;16.24;69.90
61345;BME280;47216;42.656;23.232;2022-08-01T01:05:58;93850.38;;;16.16;69.80
61345;BME280;47216;42.656;23.232;2022-08-01T01:08:33;93852.31;;;16.05;70.22
61345;BME280;47216;42.656;23.232;2022-08-01T01:11:06;93848.56;;;15.87;71.18
61345;BME280;47216;42.656;23.232;2022-08-01T01:13:40;93853.75;;;15.73;71.72
61345;BME280;47216;42.656;23.232;2022-08-01T01:16:11;93845.13;;;15.63;72.09
61345;BME280;47216;42.656;23.232;2022-08-01T01:18:43;93844.53;;;15.71;71.69
61345;BME280;47216;42.656;23.232;2022-08-01T01:21:35;93841.66;;;15.72;72.17
61345;BME280;47216;42.656;23.232;2022-08-01T01:24:16;93840.38;;;15.65;71.50
61345;BME280;47216;42.656;23.232;2022-08-01T01:26:52;93834.47;;;15.78;71.56
61345;BME280;47216;42.656;23.232;2022-08-01T01:29:26;93839.09;;;15.62;71.26
61345;BME280;47216;42.656;23.232;2022-08-01T01:31:57;93843.63;;;15.57;71.34
61345;BME280;47216;42.656;23.232;2022-08-01T01:34:27;93831.81;;;15.54;71.36
61345;BME280;47216;42.656;23.232;2022-08-01T01:36:58;93825.31;;;15.46;71.36
61345;BME280;47216;42.656;23.232;2022-08-01T01:39:28;93826.38;;;15.45;71.74
61345;BME280;47216;42.656;23.232;2022-08-01T01:41:57;93825.38;;;15.41;71.48
61345;BME280;47216;42.656;23.232;2022-08-01T01:44:27;93827.38;;;15.49;70.79
61345;BME280;47216;42.656;23.232;2022-08-01T01:46:55;93827.97;;;15.46;70.46
61345;BME280;47216;42.656;23.232;2022-08-01T01:49:25;93822.69;;;15.46;70.67
61345;BME280;47216;42.656;23.232;2022-08-01T01:51:54;93814.88;;;15.41;71.04
61345;BME280;47216;42.656;23.232;2022-08-01T01:54:26;93814.91;;;15.36;70.79
61345;BME280;47216;42.656;23.232;2022-08-01T01:56:55;93815.53;;;15.28;71.13
61345;BME280;47216;42.656;23.232;2022-08-01T01:59:28;93809.50;;;15.27;71.23
61345;BME280;47216;42.656;23.232;2022-08-01T02:01:58;93815.53;;;15.28;70.95
61345;BME280;47216;42.656;23.232;2022-08-01T02:04:27;93808.22;;;15.20;70.40
61345;BME280;47216;42.656;23.232;2022-08-01T02:06:55;93810.66;;;15.11;70.32
61345;BME280;47216;42.656;23.232;2022-08-01T02:09:23;93814.91;;;15.07;70.28
61345;BME280;47216;42.656;23.232;2022-08-01T02:11:52;93808.84;;;15.06;70.71
61345;BME280;47216;42.656;23.232;2022-08-01T02:14:20;93808.84;;;15.06;69.86
61345;BME280;47216;42.656;23.232;2022-08-01T02:16:50;93802.63;;;15.02;69.32
61345;BME280;47216;42.656;23.232;2022-08-01T02:19:17;93804.47;;;14.97;70.28
61345;BME280;47216;42.656;23.232;2022-08-01T02:21:49;93803.94;;;15.00;69.38
61345;BME280;47216;42.656;23.232;2022-08-01T02:24:28;93799.47;;;15.00;68.98
61345;BME280;47216;42.656;23.232;2022-08-01T02:27:02;93793.50;;;14.89;69.08
61345;BME280;47216;42.656;23.232;2022-08-01T02:29:36;93791.13;;;14.93;67.07
61345;BME280;47216;42.656;23.232;2022-08-01T02:32:11;93797.88;;;14.99;66.44
61345;BME280;47216;42.656;23.232;2022-08-01T02:34:40;93794.19;;;15.05;66.80
61345;BME280;47216;42.656;23.232;2022-08-01T02:37:09;93794.13;;;15.10;65.34
61345;BME280;47216;42.656;23.232;2022-08-01T02:39:37;93785.19;;;15.11;65.16
61345;BME280;47216;42.656;23.232;2022-08-01T02:42:07;93789.50;;;15.26;63.42
61345;BME280;47216;42.656;23.232;2022-08-01T02:44:37;93787.47;;;15.47;62.74
61345;BME280;47216;42.656;23.232;2022-08-01T02:47:07;93789.38;;;15.66;62.25
61345;BME280;47216;42.656;23.232;2022-08-01T02:49:39;93789.94;;;15.63;62.69
61345;BME280;47216;42.656;23.232;2022-08-01T02:52:10;93779.19;;;15.59;62.77
61345;BME280;47216;42.656;23.232;2022-08-01T02:54:39;93781.19;;;15.43;63.98
61345;BME280;47216;42.656;23.232;2022-08-01T02:57:08;93784.31;;;15.45;62.59
61345;BME280;47216;42.656;23.232;2022-08-01T02:59:37;93787.19;;;15.49;62.33
61345;BME280;47216;42.656;23.232;2022-08-01T03:02:05;93786.41;;;15.48;62.76
61345;BME280;47216;42.656;23.232;2022-08-01T03:04:35;93784.91;;;15.42;63.44
61345;BME280;47216;42.656;23.232;2022-08-01T03:07:04;93791.56;;;15.34;62.97
61345;BME280;47216;42.656;23.232;2022-08-01T03:09:37;93786.44;;;15.43;62.07
61345;BME280;47216;42.656;23.232;2022-08-01T03:12:08;93784.31;;;15.45;62.27
61345;BME280;47216;42.656;23.232;2022-08-01T03:14:38;93779.13;;;15.40;63.35
61345;BME280;47216;42.656;23.232;2022-08-01T03:17:07;93775.28;;;15.32;63.26
61345;BME280;47216;42.656;23.232;2022-08-01T03:19:36;93775.28;;;15.32;63.45
61345;BME280;47216;42.656;23.232;2022-08-01T03:22:06;93780.75;;;15.36;63.20
61345;BME280;47216;42.656;23.232;2022-08-01T03:24:36;93787.28;;;15.39;63.11
61345;BME280;47216;42.656;23.232;2022-08-01T03:27:05;93788.81;;;15.45;62.50
61345;BME280;47216;42.656;23.232;2022-08-01T03:29:33;93793.22;;;15.49;62.06
61345;BME280;47216;42.656;23.232;2022-08-01T03:32:03;93793.41;;;15.58;61.50
61345;BME280;47216;42.656;23.232;2022-08-01T03:34:31;93801.56;;;15.57;61.78
61345;BME280;47216;42.656;23.232;2022-08-01T03:37:03;93794.19;;;15.59;62.48
61345;BME280;47216;42.656;23.232;2022-08-01T03:39:37;93797.44;;;15.50;62.25
61345;BME280;47216;42.656;23.232;2022-08-01T03:42:09;93796.31;;;15.57;62.50
61345;BME280;47216;42.656;23.232;2022-08-01T03:44:39;93800.47;;;15.63;61.92
61345;BME280;47216;42.656;23.232;2022-08-01T03:47:08;93799.38;;;15.64;62.35
61345;BME280;47216;42.656;23.232;2022-08-01T03:49:40;93800.00;;;15.55;63.02
61345;BME280;47216;42.656;23.232;2022-08-01T03:52:10;93799.00;;;15.51;63.14
61345;BME280;47216;42.656;23.232;2022-08-01T03:54:40;93786.88;;;15.55;62.88
61345;BME280;47216;42.656;23.232;2022-08-01T03:57:09;93799.69;;;15.62;63.29
61345;BME280;47216;42.656;23.232;2022-08-01T03:59:37;93794.97;;;15.59;63.00
61345;BME280;47216;42.656;23.232;2022-08-01T04:02:06;93794.63;;;15.66;63.08
61345;BME280;47216;42.656;23.232;2022-08-01T04:04:33;93807.84;;;15.85;61.67
61345;BME280;47216;42.656;23.232;2022-08-01T04:07:01;93805.13;;;15.95;61.48
61345;BME280;47216;42.656;23.232;2022-08-01T04:09:33;93797.75;;;15.92;61.97
61345;BME280;47216;42.656;23.232;2022-08-01T04:12:00;93805.38;;;15.93;61.38
61345;BME280;47216;42.656;23.232;2022-08-01T04:14:27;93810.06;;;15.96;61.93
61345;BME280;47216;42.656;23.232;2022-08-01T04:16:54;93806.41;;;15.98;62.25
61345;BME280;47216;42.656;23.232;2022-08-01T04:19:21;93796.44;;;15.94;62.68
61345;BME280;47216;42.656;23.232;2022-08-01T04:21:49;93801.13;;;15.98;62.72
61345;BME280;47216;42.656;23.232;2022-08-01T04:24:18;93798.31;;;16.13;62.54
61345;BME280;47216;42.656;23.232;2022-08-01T04:26:47;93791.06;;;16.24;62.41
61345;BME280;47216;42.656;23.232;2022-08-01T04:29:17;93795.91;;;16.35;62.20
61345;BME280;47216;42.656;23.232;2022-08-01T04:31:48;93791.94;;;16.57;61.02
61345;BME280;47216;42.656;23.232;2022-08-01T04:34:17;93795.31;;;16.76;60.44
61345;BME280;47216;42.656;23.232;2022-08-01T04:36:47;93792.41;;;16.78;61.06
61345;BME280;47216;42.656;23.232;2022-08-01T04:39:16;93788.09;;;16.87;60.19
61345;BME280;47216;42.656;23.232;2022-08-01T04:41:43;93796.53;;;16.84;61.45
61345;BME280;47216;42.656;23.232;2022-08-01T04:44:13;93787.63;;;16.99;59.37
61345;BME280;47216;42.656;23.232;2022-08-01T04:46:40;93796.84;;;17.15;60.16
61345;BME280;47216;42.656;23.232;2022-08-01T04:49:07;93790.09;;;17.09;59.68
61345;BME280;47216;42.656;23.232;2022-08-01T04:51:35;93798.78;;;17.23;58.93
61345;BME280;47216;42.656;23.232;2022-08-01T04:54:02;93799.53;;;17.43;57.57
61345;BME280;47216;42.656;23.232;2022-08-01T04:56:29;93784.59;;;17.66;56.82
61345;BME280;47216;42.656;23.232;2022-08-01T04:58:59;93790.00;;;17.75;57.66
61345;BME280;47216;42.656;23.232;2022-08-01T05:01:49;93793.19;;;17.72;56.45
61345;BME280;47216;42.656;23.232;2022-08-01T05:04:16;93801.91;;;17.86;57.71
61345;BME280;47216;42.656;23.232;2022-08-01T05:06:43;93788.72;;;17.86;57.42
61345;BME280;47216;42.656;23.232;2022-08-01T05:09:10;93799.38;;;17.81;57.97
61345;BME280;47216;42.656;23.232;2022-08-01T05:11:37;93788.94;;;17.90;57.87
61345;BME280;47216;42.656;23.232;2022-08-01T05:14:04;93790.47;;;18.04;56.05
61345;BME280;47216;42.656;23.232;2022-08-01T05:16:32;93785.66;;;18.20;56.50
61345;BME280;47216;42.656;23.232;2022-08-01T05:19:00;93783.59;;;18.31;55.91
61345;BME280;47216;42.656;23.232;2022-08-01T05:21:27;93781.31;;;18.38;56.30
61345;BME280;47216;42.656;23.232;2022-08-01T05:23:54;93797.84;;;18.44;56.90
61345;BME280;47216;42.656;23.232;2022-08-01T05:26:21;93793.78;;;18.60;55.97
61345;BME280;47216;42.656;23.232;2022-08-01T05:28:48;93788.56;;;18.69;55.19
61345;BME280;47216;42.656;23.232;2022-08-01T05:31:15;93802.66;;;18.78;55.26
61345;BME280;47216;42.656;23.232;2022-08-01T05:33:42;93794.97;;;18.91;54.02
61345;BME280;47216;42.656;23.232;2022-08-01T05:36:10;93791.59;;;18.99;54.00
61345;BME280;47216;42.656;23.232;2022-08-01T05:38:37;93789.38;;;19.15;54.81
61345;BME280;47216;42.656;23.232;2022-08-01T05:41:04;93776.44;;;19.13;55.28
61345;BME280;47216;42.656;23.232;2022-08-01T05:43:31;93793.75;;;19.19;55.36
61345;BME280;47216;42.656;23.232;2022-08-01T05:45:58;93786.16;;;19.26;55.50
61345;BME280;47216;42.656;23.232;2022-08-01T05:48:25;93789.28;;;19.28;54.28
61345;BME280;47216;42.656;23.232;2022-08-01T05:50:51;93788.16;;;19.43;53.27
61345;BME280;47216;42.656;23.232;2022-08-01T05:53:21;93796.41;;;19.50;53.44
61345;BME280;47216;42.656;23.232;2022-08-01T05:55:47;93801.63;;;19.64;53.85
61345;BME280;47216;42.656;23.232;2022-08-01T05:58:14;93796.22;;;19.69;53.95
61345;BME280;47216;42.656;23.232;2022-08-01T06:00:41;93803.88;;;19.80;50.88
61345;BME280;47216;42.656;23.232;2022-08-01T06:03:08;93789.56;;;19.81;51.01
61345;BME280;47216;42.656;23.232;2022-08-01T06:05:36;93798.78;;;19.92;49.99
61345;BME280;47216;42.656;23.232;2022-08-01T06:08:03;93793.38;;;20.14;50.75
61345;BME280;47216;42.656;23.232;2022-08-01T06:10:32;93800.25;;;20.15;49.67
61345;BME280;47216;42.656;23.232;2022-08-01T06:12:58;93799.28;;;20.11;49.57
61345;BME280;47216;42.656;23.232;2022-08-01T06:15:28;93797.16;;;20.31;49.57
61345;BME280;47216;42.656;23.232;2022-08-01T06:17:55;93807.88;;;20.26;49.48
61345;BME280;47216;42.656;23.232;2022-08-01T06:20:22;93805.41;;;20.29;50.35
61345;BME280;47216;42.656;23.232;2022-08-01T06:22:49;93802.00;;;20.29;48.79
61345;BME280;47216;42.656;23.232;2022-08-01T06:25:17;93801.03;;;20.25;48.40
61345;BME280;47216;42.656;23.232;2022-08-01T06:27:45;93807.59;;;20.27;48.68
61345;BME280;47216;42.656;23.232;2022-08-01T06:30:12;93797.03;;;20.36;48.50
61345;BME280;47216;42.656;23.232;2022-08-01T06:32:39;93799.97;;;20.34;48.23
61345;BME280;47216;42.656;23.232;2022-08-01T06:35:07;93796.09;;;20.41;49.18
61345;BME280;47216;42.656;23.232;2022-08-01T06:37:34;93797.34;;;20.52;47.86
61345;BME280;47216;42.656;23.232;2022-08-01T06:40:01;93803.88;;;20.46;49.04
61345;BME280;47216;42.656;23.232;2022-08-01T06:42:28;93787.81;;;20.51;46.87
61345;BME280;47216;42.656;23.232;2022-08-01T06:44:58;93791.59;;;20.59;48.27
61345;BME280;47216;42.656;23.232;2022-08-01T06:47:25;93794.56;;;20.74;47.63
61345;BME280;47216;42.656;23.232;2022-08-01T06:49:51;93782.88;;;20.84;47.62
61345;BME280;47216;42.656;23.232;2022-08-01T06:52:18;93788.63;;;20.86;46.75
61345;BME280;47216;42.656;23.232;2022-08-01T06:54:45;93786.47;;;20.80;47.56
61345;BME280;47216;42.656;23.232;2022-08-01T06:57:12;93781.44;;;20.95;47.07
61345;BME280;47216;42.656;23.232;2022-08-01T06:59:39;93778.78;;;20.95;48.10
61345;BME280;47216;42.656;23.232;2022-08-01T07:02:08;93784.84;;;21.13;48.44
61345;BME280;47216;42.656;23.232;2022-08-01T07:04:35;93772.22;;;21.19;47.04
61345;BME280;47216;42.656;23.232;2022-08-01T07:07:02;93775.31;;;21.21;47.41
61345;BME280;47216;42.656;23.232;2022-08-01T07:09:29;93765.94;;;21.32;48.19
61345;BME280;47216;42.656;23.232;2022-08-01T07:11:55;93772.50;;;21.44;47.70
61345;BME280;47216;42.656;23.232;2022-08-01T07:14:23;93772.94;;;21.46;47.58
61345;BME280;47216;42.656;23.232;2022-08-01T07:16:50;93780.41;;;21.61;46.80
61345;BME280;47216;42.656;23.232;2022-08-01T07:19:18;93783.53;;;21.54;47.45
61345;BME280;47216;42.656;23.232;2022-08-01T07:21:45;93778.38;;;21.58;47.29
61345;BME280;47216;42.656;23.232;2022-08-01T07:24:13;93785.56;;;21.57;48.12
61345;BME280;47216;42.656;23.232;2022-08-01T07:26:41;93789.09;;;21.70;47.14
61345;BME280;47216;42.656;23.232;2022-08-01T07:29:08;93778.00;;;21.77;48.12
61345;BME280;47216;42.656;23.232;2022-08-01T07:31:35;93786.03;;;21.98;47.44
61345;BME280;47216;42.656;23.232;2022-08-01T07:34:02;93782.53;;;22.06;47.18
61345;BME280;47216;42.656;23.232;2022-08-01T07:36:31;93781.75;;;22.06;46.24
61345;BME280;47216;42.656;23.232;2022-08-01T07:38:58;93777.94;;;22.15;47.32
61345;BME280;47216;42.656;23.232;2022-08-01T07:41:24;93780.44;;;21.91;46.91
61345;BME280;47216;42.656;23.232;2022-08-01T07:43:51;93782.13;;;21.95;48.20
61345;BME280;47216;42.656;23.232;2022-08-01T07:46:18;93789.91;;;21.62;47.40
61345;BME280;47216;42.656;23.232;2022-08-01T07:48:45;93785.91;;;21.47;47.83
61345;BME280;47216;42.656;23.232;2022-08-01T07:51:12;93784.69;;;21.45;47.12
61345;BME280;47216;42.656;23.232;2022-08-01T07:53:40;93776.19;;;21.60;47.44
61345;BME280;47216;42.656;23.232;2022-08-01T07:56:07;93783.25;;;21.86;46.84
61345;BME280;47216;42.656;23.232;2022-08-01T07:58:34;93779.50;;;22.16;48.01
61345;BME280;47216;42.656;23.232;2022-08-01T08:01:01;93781.34;;;22.24;46.51
61345;BME280;47216;42.656;23.232;2022-08-01T08:03:28;93786.47;;;22.30;45.60
61345;BME280;47216;42.656;23.232;2022-08-01T08:05:54;93783.91;;;22.21;45.90
61345;BME280;47216;42.656;23.232;2022-08-01T08:08:22;93784.19;;;22.19;46.94
61345;BME280;47216;42.656;23.232;2022-08-01T08:10:50;93794.72;;;22.07;46.21
61345;BME280;47216;42.656;23.232;2022-08-01T08:13:17;93790.75;;;22.13;45.84
61345;BME280;47216;42.656;23.232;2022-08-01T08:15:44;93786.94;;;22.02;45.65
61345;BME280;47216;42.656;23.232;2022-08-01T08:18:11;93782.53;;;22.06;45.98
61345;BME280;47216;42.656;23.232;2022-08-01T08:20:38;93795.75;;;22.23;46.20
61345;BME280;47216;42.656;23.232;2022-08-01T08:23:05;93797.75;;;22.27;45.45
61345;BME280;47216;42.656;23.232;2022-08-01T08:25:53;93786.28;;;22.05;46.90
61345;BME280;47216;42.656;23.232;2022-08-01T08:28:20;93788.19;;;22.05;44.77
61345;BME280;47216;42.656;23.232;2022-08-01T08:30:47;93791.53;;;22.22;45.66
61345;BME280;47216;42.656;23.232;2022-08-01T08:33:13;93779.53;;;22.46;44.77
61345;BME280;47216;42.656;23.232;2022-08-01T08:35:40;93795.38;;;22.55;45.65
61345;BME280;47216;42.656;23.232;2022-08-01T08:38:07;93791.56;;;22.85;45.39
61345;BME280;47216;42.656;23.232;2022-08-01T08:40:35;93794.84;;;22.82;45.41
61345;BME280;47216;42.656;23.232;2022-08-01T08:43:05;93786.34;;;22.89;44.44
61345;BME280;47216;42.656;23.232;2022-08-01T08:45:32;93773.50;;;22.91;44.66
61345;BME280;47216;42.656;23.232;2022-08-01T08:47:59;93762.09;;;23.12;43.36
61345;BME280;47216;42.656;23.232;2022-08-01T08:50:27;93779.53;;;23.21;44.42
61345;BME280;47216;42.656;23.232;2022-08-01T08:52:55;93779.84;;;23.20;44.08
61345;BME280;47216;42.656;23.232;2022-08-01T08:55:23;93773.88;;;23.23;44.08
61345;BME280;47216;42.656;23.232;2022-08-01T08:57:50;93786.44;;;23.35;43.69
61345;BME280;47216;42.656;23.232;2022-08-01T09:00:19;93778.44;;;23.35;43.46
61345;BME280;47216;42.656;23.232;2022-08-01T09:02:47;93782.59;;;23.57;43.27
61345;BME280;47216;42.656;23.232;2022-08-01T09:05:15;93764.09;;;23.73;42.73
61345;BME280;47216;42.656;23.232;2022-08-01T09:07:43;93758.91;;;23.76;43.37
61345;BME280;47216;42.656;23.232;2022-08-01T09:10:09;93751.97;;;23.63;42.34
61345;BME280;47216;42.656;23.232;2022-08-01T09:12:36;93756.22;;;23.64;42.81
61345;BME280;47216;42.656;23.232;2022-08-01T09:15:04;93759.19;;;23.62;42.22
61345;BME280;47216;42.656;23.232;2022-08-01T09:17:40;93742.69;;;23.69;43.23
61345;BME280;47216;42.656;23.232;2022-08-01T09:20:22;93750.16;;;23.88;42.68
61345;BME280;47216;42.656;23.232;2022-08-01T09:22:49;93744.00;;;23.63;43.14
61345;BME280;47216;42.656;23.232;2022-08-01T09:25:16;93748.97;;;23.52;43.19
61345;BME280;47216;42.656;23.232;2022-08-01T09:27:43;93746.44;;;23.68;42.97
61345;BME280;47216;42.656;23.232;2022-08-01T09:30:11;93741.81;;;23.89;42.77
61345;BME280;47216;42.656;23.232;2022-08-01T09:32:58;93740.03;;;24.06;42.96
61345;BME280;47216;42.656;23.232;2022-08-01T09:35:28;93748.47;;;24.08;42.87
61345;BME280;47216;42.656;23.232;2022-08-01T09:38:14;93737.47;;;24.22;42.35
61345;BME280;47216;42.656;23.232;2022-08-01T09:40:46;93739.13;;;24.14;43.06
61345;BME280;47216;42.656;23.232;2022-08-01T09:43:13;93745.56;;;24.13;42.97
61345;BME280;47216;42.656;23.232;2022-08-01T09:45:40;93750.25;;;24.04;44.11
61345;BME280;47216;42.656;23.232;2022-08-01T09:48:09;93754.91;;;23.95;43.85
61345;BME280;47216;42.656;23.232;2022-08-01T09:50:41;93758.69;;;23.94;44.72
61345;BME280;47216;42.656;23.232;2022-08-01T09:53:08;93751.78;;;24.17;44.62
61345;BME280;47216;42.656;23.232;2022-08-01T09:55:35;93744.00;;;24.24;42.66
61345;BME280;47216;42.656;23.232;2022-08-01T09:58:03;93738.88;;;24.19;45.04
61345;BME280;47216;42.656;23.232;2022-08-01T10:00:30;93749.16;;;23.93;43.55
61345;BME280;47216;42.656;23.232;2022-08-01T10:02:58;93735.47;;;24.06;43.33
61345;BME280;47216;42.656;23.232;2022-08-01T10:05:33;93748.59;;;23.99;42.88
61345;BME280;47216;42.656;23.232;2022-08-01T10:08:03;93739.13;;;24.14;42.77
61345;BME280;47216;42.656;23.232;2022-08-01T10:10:31;93741.44;;;24.28;42.05
61345;BME280;47216;42.656;23.232;2022-08-01T10:12:59;93733.56;;;24.19;42.54
61345;BME280;47216;42.656;23.232;2022-08-01T10:15:26;93733.56;;;24.19;42.02
61345;BME280;47216;42.656;23.232;2022-08-01T10:17:55;93751.78;;;24.29;42.15
61345;BME280;47216;42.656;23.232;2022-08-01T10:20:24;93743.19;;;24.48;42.39
61345;BME280;47216;42.656;23.232;2022-08-01T10:22:54;93727.75;;;24.54;41.34
61345;BME280;47216;42.656;23.232;2022-08-01T10:25:21;93731.84;;;24.64;41.78
61345;BME280;47216;42.656;23.232;2022-08-01T10:27:49;93733.97;;;24.46;40.90
61345;BME280;47216;42.656;23.232;2022-08-01T10:30:20;93723.78;;;24.36;40.62
61345;BME280;47216;42.656;23.232;2022-08-01T10:32:48;93725.75;;;24.51;40.60
61345;BME280;47216;42.656;23.232;2022-08-01T10:35:15;93730.06;;;24.56;40.90
61345;BME280;47216;42.656;23.232;2022-08-01T10:37:44;93740.66;;;24.80;40.71
61345;BME280;47216;42.656;23.232;2022-08-01T10:40:13;93726.69;;;24.99;40.78
61345;BME280;47216;42.656;23.232;2022-08-01T10:42:41;93727.72;;;25.10;40.26
61345;BME280;47216;42.656;23.232;2022-08-01T10:45:09;93721.91;;;25.21;39.96
61345;BME280;47216;42.656;23.232;2022-08-01T10:47:42;93722.09;;;25.00;39.97
61345;BME280;47216;42.656;23.232;2022-08-01T10:50:15;93727.88;;;25.02;39.94
61345;BME280;47216;42.656;23.232;2022-08-01T10:53:11;93725.94;;;25.14;40.29
61345;BME280;47216;42.656;23.232;2022-08-01T10:55:51;93721.25;;;24.95;40.02
61345;BME280;47216;42.656;23.232;2022-08-01T10:58:23;93719.00;;;24.98;40.09
61345;BME280;47216;42.656;23.232;2022-08-01T11:01:14;93711.91;;;25.17;40.57
61345;BME280;47216;42.656;23.232;2022-08-01T11:03:42;93712.31;;;25.04;40.48
61345;BME280;47216;42.656;23.232;2022-08-01T11:06:16;93705.41;;;24.87;39.99
61345;BME280;47216;42.656;23.232;2022-08-01T11:08:50;93699.91;;;24.67;40.39
61345;BME280;47216;42.656;23.232;2022-08-01T11:11:19;93700.31;;;24.82;40.93
61345;BME280;47216;42.656;23.232;2022-08-01T11:14:03;93684.22;;;25.22;42.96
61345;BME280;47216;42.656;23.232;2022-08-01T11:16:33;93693.16;;;25.30;39.61
61345;BME280;47216;42.656;23.232;2022-08-01T11:19:01;93690.91;;;25.00;40.07
61345;BME280;47216;42.656;23.232;2022-08-01T11:21:58;93699.03;;;24.91;40.34
61345;BME280;47216;42.656;23.232;2022-08-01T11:24:54;93691.50;;;25.09;41.85
61345;BME280;47216;42.656;23.232;2022-08-01T11:27:25;93701.72;;;24.91;40.25
61345;BME280;47216;42.656;23.232;2022-08-01T11:30:23;93689.03;;;24.88;40.82
61345;BME280;47216;42.656;23.232;2022-08-01T11:32:52;93701.34;;;24.93;42.36
61345;BME280;47216;42.656;23.232;2022-08-01T11:35:20;93699.75;;;25.04;41.03
61345;BME280;47216;42.656;23.232;2022-08-01T11:37:49;93692.13;;;25.19;41.41
61345;BME280;47216;42.656;23.232;2022-08-01T11:40:19;93692.13;;;25.50;40.75
61345;BME280;47216;42.656;23.232;2022-08-01T11:42:48;93691.81;;;25.52;40.11
61345;BME280;47216;42.656;23.232;2022-08-01T11:45:16;93691.38;;;25.34;40.56
61345;BME280;47216;42.656;23.232;2022-08-01T11:47:44;93692.06;;;25.63;41.05
61345;BME280;47216;42.656;23.232;2022-08-01T11:50:35;93697.47;;;25.82;40.95
61345;BME280;47216;42.656;23.232;2022-08-01T11:53:04;93688.97;;;25.61;40.84
61345;BME280;47216;42.656;23.232;2022-08-01T11:55:31;93696.81;;;25.53;40.88
61345;BME280;47216;42.656;23.232;2022-08-01T11:58:03;93697.38;;;25.78;42.18
61345;BME280;47216;42.656;23.232;2022-08-01T12:00:31;93691.91;;;25.11;40.51
61345;BME280;47216;42.656;23.232;2022-08-01T12:02:59;93700.31;;;24.82;41.50
61345;BME280;47216;42.656;23.232;2022-08-01T12:05:27;93688.22;;;25.00;42.23
61345;BME280;47216;42.656;23.232;2022-08-01T12:07:55;93702.78;;;25.19;41.52
61345;BME280;47216;42.656;23.232;2022-08-01T12:10:23;93691.88;;;25.24;40.78
61345;BME280;47216;42.656;23.232;2022-08-01T12:12:52;93675.69;;;25.32;40.94
61345;BME280;47216;42.656;23.232;2022-08-01T12:15:23;93692.66;;;25.40;40.73
61345;BME280;47216;42.656;23.232;2022-08-01T12:17:53;93691.81;;;25.36;40.64
61345;BME280;47216;42.656;23.232;2022-08-01T12:20:22;93688.53;;;25.27;40.77
61345;BME280;47216;42.656;23.232;2022-08-01T12:22:53;93686.03;;;25.34;40.69
61345;BME280;47216;42.656;23.232;2022-08-01T12:25:19;93680.19;;;25.44;40.74
61345;BME280;47216;42.656;23.232;2022-08-01T12:27:47;93682.16;;;25.47;39.84
61345;BME280;47216;42.656;23.232;2022-08-01T12:30:16;93684.41;;;25.45;40.87
61345;BME280;47216;42.656;23.232;2022-08-01T12:32:45;93671.31;;;25.56;40.68
61345;BME280;47216;42.656;23.232;2022-08-01T12:35:14;93683.34;;;25.66;41.08
61345;BME280;47216;42.656;23.232;2022-08-01T12:37:42;93687.66;;;25.54;40.64
61345;BME280;47216;42.656;23.232;2022-08-01T12:40:15;93683.69;;;25.64;40.22
61345;BME280;47216;42.656;23.232;2022-08-01T12:42:44;93684.56;;;25.52;40.00
61345;BME280;47216;42.656;23.232;2022-08-01T12:45:13;93684.56;;;25.68;41.12
61345;BME280;47216;42.656;23.232;2022-08-01T12:47:41;93680.78;;;25.53;39.79
61345;BME280;47216;42.656;23.232;2022-08-01T12:50:12;93686.97;;;25.57;39.94
61345;BME280;47216;42.656;23.232;2022-08-01T12:52:40;93681.63;;;25.57;39.28
61345;BME280;47216;42.656;23.232;2022-08-01T12:55:10;93675.22;;;25.78;40.14
61345;BME280;47216;42.656;23.232;2022-08-01T12:57:39;93683.84;;;25.87;38.72
61345;BME280;47216;42.656;23.232;2022-08-01T13:00:12;93675.94;;;25.91;39.48
61345;BME280;47216;42.656;23.232;2022-08-01T13:02:40;93672.56;;;25.78;39.95